sensor_id;sensor_type;location;lat;lon;timestamp;pressure;altitude;pressure_sealevel;temperature;humidity
11041;BME280;5573;49.592;8.662;2023-05-12T00:01:08;99679.38;;;11.29;93.43
11041;BME280;5573;49.592;8.662;2023-05-12T00:03:56;99675.50;;;11.25;93.46
11041;BME280;5573;49.592;8.662;2023-05-12T00:06:45;99678.63;;;11.22;93.41
11041;BME280;5573;49.592;8.662;2023-05-12T00:09:33;99670.44;;;11.17;93.43
11041;BME280;5573;49.592;8.662;2023-05-12T00:12:23;99676.59;;;11.17;93.03
11041;BME280;5573;49.592;8.662;2023-05-12T00:15:11;99673.94;;;11.17;93.84
11041;BME280;5573;49.592;8.662;2023-05-12T00:17:59;99667.56;;;11.18;93.61
11041;BME280;5573;49.592;8.662;2023-05-12T00:20:47;99669.84;;;11.15;93.60
11041;BME280;5573;49.592;8.662;2023-05-12T00:23:35;99667.84;;;11.10;93.23
11041;BME280;5573;49.592;8.662;2023-05-12T00:26:23;99664.34;;;11.10;93.84
11041;BME280;5573;49.592;8.662;2023-05-12T00:29:13;99664.34;;;11.10;93.48
11041;BME280;5573;49.592;8.662;2023-05-12T00:32:01;99671.31;;;11.11;93.47
11041;BME280;5573;49.592;8.662;2023-05-12T00:34:49;99668.59;;;11.17;93.57
11041;BME280;5573;49.592;8.662;2023-05-12T00:37:38;99658.31;;;11.21;93.13
11041;BME280;5573;49.592;8.662;2023-05-12T00:40:27;99668.97;;;11.21;93.79
11041;BME280;5573;49.592;8.662;2023-05-12T00:43:15;99667.19;;;11.15;93.71
11041;BME280;5573;49.592;8.662;2023-05-12T00:46:05;99662.06;;;11.13;93.27
11041;BME280;5573;49.592;8.662;2023-05-12T00:48:53;99654.31;;;11.12;94.05
11041;BME280;5573;49.592;8.662;2023-05-12T00:51:41;99637.38;;;11.00;93.57
11041;BME280;5573;49.592;8.662;2023-05-12T00:54:30;99656.09;;;11.18;94.19
11041;BME280;5573;49.592;8.662;2023-05-12T00:57:19;99663.63;;;11.21;93.46
11041;BME280;5573;49.592;8.662;2023-05-12T01:00:09;99660.97;;;11.21;93.91
11041;BME280;5573;49.592;8.662;2023-05-12T01:03:01;99655.19;;;11.24;93.21
11041;BME280;5573;49.592;8.662;2023-05-12T01:05:55;99654.41;;;11.24;93.60
11041;BME280;5573;49.592;8.662;2023-05-12T01:08:47;99653.91;;;11.33;94.31
11041;BME280;5573;49.592;8.662;2023-05-12T01:11:36;99651.03;;;11.35;93.75
11041;BME280;5573;49.592;8.662;2023-05-12T01:14:25;99649.59;;;11.32;94.02
11041;BME280;5573;49.592;8.662;2023-05-12T01:17:15;99650.41;;;11.33;93.74
11041;BME280;5573;49.592;8.662;2023-05-12T01:20:10;99649.44;;;11.27;93.64
11041;BME280;5573;49.592;8.662;2023-05-12T01:22:59;99648.41;;;11.28;93.27
11041;BME280;5573;49.592;8.662;2023-05-12T01:25:49;99656.25;;;11.23;93.24
11041;BME280;5573;49.592;8.662;2023-05-12T01:28:39;99651.75;;;11.24;93.52
11041;BME280;5573;49.592;8.662;2023-05-12T01:31:28;99654.53;;;11.29;94.05
11041;BME280;5573;49.592;8.662;2023-05-12T01:34:17;99653.59;;;11.23;93.89
11041;BME280;5573;49.592;8.662;2023-05-12T01:37:10;99647.63;;;11.21;93.75
11041;BME280;5573;49.592;8.662;2023-05-12T01:39:59;99655.88;;;11.19;93.67
11041;BME280;5573;49.592;8.662;2023-05-12T01:42:48;99633.81;;;11.06;93.63
11041;BME280;5573;49.592;8.662;2023-05-12T01:45:38;99647.50;;;11.16;93.78
11041;BME280;5573;49.592;8.662;2023-05-12T01:48:26;99646.25;;;11.18;93.97
11041;BME280;5573;49.592;8.662;2023-05-12T01:51:16;99655.88;;;11.19;94.07
11041;BME280;5573;49.592;8.662;2023-05-12T01:54:04;99651.78;;;11.17;94.17
11041;BME280;5573;49.592;8.662;2023-05-12T01:56:56;99656.69;;;11.20;93.49
11041;BME280;5573;49.592;8.662;2023-05-12T01:59:45;99658.69;;;11.25;93.67
11041;BME280;5573;49.592;8.662;2023-05-12T02:02:34;99654.41;;;11.24;93.52
11041;BME280;5573;49.592;8.662;2023-05-12T02:05:22;99651.78;;;11.17;93.86
11041;BME280;5573;49.592;8.662;2023-05-12T02:08:11;99657.50;;;11.20;94.28
11041;BME280;5573;49.592;8.662;2023-05-12T02:11:05;99662.63;;;11.22;93.89
11041;BME280;5573;49.592;8.662;2023-05-12T02:13:54;99661.59;;;11.23;93.42
11041;BME280;5573;49.592;8.662;2023-05-12T02:16:44;99662.41;;;11.24;93.46
11041;BME280;5573;49.592;8.662;2023-05-12T02:19:34;99664.38;;;11.28;94.38
11041;BME280;5573;49.592;8.662;2023-05-12T02:22:22;99668.13;;;11.27;94.08
11041;BME280;5573;49.592;8.662;2023-05-12T02:25:20;99664.38;;;11.28;94.02
11041;BME280;5573;49.592;8.662;2023-05-12T02:28:33;99666.03;;;11.29;93.64
11041;BME280;5573;49.592;8.662;2023-05-12T02:31:23;99660.50;;;11.31;93.76
11041;BME280;5573;49.592;8.662;2023-05-12T02:34:12;99663.19;;;11.24;94.27
11041;BME280;5573;49.592;8.662;2023-05-12T02:37:01;99662.63;;;11.22;93.51
11041;BME280;5573;49.592;8.662;2023-05-12T02:39:50;99662.81;;;11.20;94.12
11041;BME280;5573;49.592;8.662;2023-05-12T02:42:38;99655.25;;;11.17;93.87
11041;BME280;5573;49.592;8.662;2023-05-12T02:45:27;99656.31;;;11.16;94.31
11041;BME280;5573;49.592;8.662;2023-05-12T02:48:16;99659.19;;;11.15;94.14
11041;BME280;5573;49.592;8.662;2023-05-12T02:51:04;99653.03;;;11.14;94.13
11041;BME280;5573;49.592;8.662;2023-05-12T02:53:53;99650.16;;;11.16;93.62
11041;BME280;5573;49.592;8.662;2023-05-12T02:56:41;99649.78;;;11.12;94.16
11041;BME280;5573;49.592;8.662;2023-05-12T02:59:30;99660.44;;;11.12;94.30
11041;BME280;5573;49.592;8.662;2023-05-12T03:02:18;99647.13;;;11.12;94.02
11041;BME280;5573;49.592;8.662;2023-05-12T03:05:07;99656.34;;;11.10;93.55
11041;BME280;5573;49.592;8.662;2023-05-12T03:07:56;99652.22;;;11.14;94.52
11041;BME280;5573;49.592;8.662;2023-05-12T03:10:45;99644.84;;;11.16;94.10
11041;BME280;5573;49.592;8.662;2023-05-12T03:13:33;99645.25;;;11.13;94.36
11041;BME280;5573;49.592;8.662;2023-05-12T03:16:22;99654.31;;;11.12;93.71
11041;BME280;5573;49.592;8.662;2023-05-12T03:19:10;99656.69;;;11.20;93.31
11041;BME280;5573;49.592;8.662;2023-05-12T03:21:59;99652.66;;;11.11;94.02
11041;BME280;5573;49.592;8.662;2023-05-12T03:24:47;99656.78;;;11.07;93.71
11041;BME280;5573;49.592;8.662;2023-05-12T03:27:36;99649.25;;;11.04;93.79
11041;BME280;5573;49.592;8.662;2023-05-12T03:30:25;99652.09;;;11.02;93.90
11041;BME280;5573;49.592;8.662;2023-05-12T03:33:13;99653.53;;;11.05;93.98
11041;BME280;5573;49.592;8.662;2023-05-12T03:36:01;99645.56;;;10.98;94.27
11041;BME280;5573;49.592;8.662;2023-05-12T03:38:49;99648.69;;;10.95;93.47
11041;BME280;5573;49.592;8.662;2023-05-12T03:41:37;99648.69;;;10.95;94.52
11041;BME280;5573;49.592;8.662;2023-05-12T03:44:27;99648.69;;;10.95;93.75
11041;BME280;5573;49.592;8.662;2023-05-12T03:47:16;99648.47;;;10.97;94.56
11041;BME280;5573;49.592;8.662;2023-05-12T03:50:05;99647.22;;;10.99;94.43
11041;BME280;5573;49.592;8.662;2023-05-12T03:52:54;99642.53;;;10.95;93.79
11041;BME280;5573;49.592;8.662;2023-05-12T03:55:42;99647.28;;;10.93;94.41
11041;BME280;5573;49.592;8.662;2023-05-12T03:58:30;99642.53;;;10.95;94.09
11041;BME280;5573;49.592;8.662;2023-05-12T04:01:20;99646.25;;;10.94;94.50
11041;BME280;5573;49.592;8.662;2023-05-12T04:04:08;99642.13;;;10.98;94.43
11041;BME280;5573;49.592;8.662;2023-05-12T04:06:58;99645.81;;;10.97;94.23
11041;BME280;5573;49.592;8.662;2023-05-12T04:09:46;99644.34;;;11.01;93.92
11041;BME280;5573;49.592;8.662;2023-05-12T04:12:34;99656.41;;;11.03;94.33
11041;BME280;5573;49.592;8.662;2023-05-12T04:15:22;99654.50;;;11.10;93.78
11041;BME280;5573;49.592;8.662;2023-05-12T04:18:12;99656.16;;;11.11;94.51
11041;BME280;5573;49.592;8.662;2023-05-12T04:21:00;99661.25;;;11.13;93.66
11041;BME280;5573;49.592;8.662;2023-05-12T04:23:50;99658.31;;;11.21;94.54
11041;BME280;5573;49.592;8.662;2023-05-12T04:26:44;99660.53;;;11.24;93.75
11041;BME280;5573;49.592;8.662;2023-05-12T04:29:32;99673.28;;;11.22;94.51
11041;BME280;5573;49.592;8.662;2023-05-12T04:32:21;99665.22;;;11.29;94.00
11041;BME280;5573;49.592;8.662;2023-05-12T04:35:11;99669.69;;;11.35;94.42
11041;BME280;5573;49.592;8.662;2023-05-12T04:38:00;99668.06;;;11.34;94.01
11041;BME280;5573;49.592;8.662;2023-05-12T04:40:49;99670.34;;;11.30;93.95
11041;BME280;5573;49.592;8.662;2023-05-12T04:43:37;99677.44;;;11.36;94.35
11041;BME280;5573;49.592;8.662;2023-05-12T04:46:29;99676.22;;;11.39;93.94
11041;BME280;5573;49.592;8.662;2023-05-12T04:49:19;99669.00;;;11.39;94.18
11041;BME280;5573;49.592;8.662;2023-05-12T04:52:09;99672.47;;;11.46;93.92
11041;BME280;5573;49.592;8.662;2023-05-12T04:54:57;99681.63;;;11.50;93.21
11041;BME280;5573;49.592;8.662;2023-05-12T04:57:45;99683.72;;;11.48;93.51
11041;BME280;5573;49.592;8.662;2023-05-12T05:00:34;99682.00;;;11.54;93.33
11041;BME280;5573;49.592;8.662;2023-05-12T05:03:22;99683.63;;;11.55;92.51
11041;BME280;5573;49.592;8.662;2023-05-12T05:06:10;99685.50;;;11.54;92.96
11041;BME280;5573;49.592;8.662;2023-05-12T05:09:00;99690.63;;;11.56;92.85
11041;BME280;5573;49.592;8.662;2023-05-12T05:11:48;99694.69;;;11.58;92.63
11041;BME280;5573;49.592;8.662;2023-05-12T05:14:37;99690.41;;;11.57;92.69
11041;BME280;5573;49.592;8.662;2023-05-12T05:17:26;99689.13;;;11.60;93.16
11041;BME280;5573;49.592;8.662;2023-05-12T05:20:15;99693.59;;;11.66;92.42
11041;BME280;5573;49.592;8.662;2023-05-12T05:23:06;99699.50;;;11.75;92.52
11041;BME280;5573;49.592;8.662;2023-05-12T05:25:56;99688.56;;;11.76;92.24
11041;BME280;5573;49.592;8.662;2023-05-12T05:28:44;99697.56;;;11.82;91.88
11041;BME280;5573;49.592;8.662;2023-05-12T05:31:32;99692.59;;;11.85;92.06
11041;BME280;5573;49.592;8.662;2023-05-12T05:34:21;99706.03;;;11.97;91.85
11041;BME280;5573;49.592;8.662;2023-05-12T05:37:09;99704.19;;;11.97;91.96
11041;BME280;5573;49.592;8.662;2023-05-12T05:39:57;99708.41;;;12.05;91.54
11041;BME280;5573;49.592;8.662;2023-05-12T05:42:46;99688.97;;;12.16;90.95
11041;BME280;5573;49.592;8.662;2023-05-12T05:45:35;99705.34;;;12.20;90.77
11041;BME280;5573;49.592;8.662;2023-05-12T05:48:23;99676.66;;;12.15;90.97
11041;BME280;5573;49.592;8.662;2023-05-12T05:51:13;99709.84;;;12.37;90.62
11041;BME280;5573;49.592;8.662;2023-05-12T05:54:02;99709.09;;;12.48;90.21
11041;BME280;5573;49.592;8.662;2023-05-12T05:56:50;99710.84;;;12.43;90.00
11041;BME280;5573;49.592;8.662;2023-05-12T05:59:40;99721.34;;;12.56;90.25
11041;BME280;5573;49.592;8.662;2023-05-12T06:02:29;99704.44;;;12.74;89.70
11041;BME280;5573;49.592;8.662;2023-05-12T06:05:18;99713.78;;;12.83;88.96
11041;BME280;5573;49.592;8.662;2023-05-12T06:08:07;99712.81;;;12.77;88.71
11041;BME280;5573;49.592;8.662;2023-05-12T06:10:58;99718.50;;;12.81;88.67
11041;BME280;5573;49.592;8.662;2023-05-12T06:13:47;99724.50;;;12.94;87.90
11041;BME280;5573;49.592;8.662;2023-05-12T06:16:36;99729.03;;;12.94;87.80
11041;BME280;5573;49.592;8.662;2023-05-12T06:19:26;99737.00;;;12.82;88.61
11041;BME280;5573;49.592;8.662;2023-05-12T06:22:15;99737.06;;;12.94;88.20
11041;BME280;5573;49.592;8.662;2023-05-12T06:25:05;99736.81;;;12.95;88.27
11041;BME280;5573;49.592;8.662;2023-05-12T06:27:53;99741.00;;;12.91;88.50
11041;BME280;5573;49.592;8.662;2023-05-12T06:30:42;99745.97;;;12.88;87.70
11041;BME280;5573;49.592;8.662;2023-05-12T06:33:31;99752.78;;;12.72;87.91
11041;BME280;5573;49.592;8.662;2023-05-12T06:36:19;99744.19;;;12.52;87.91
11041;BME280;5573;49.592;8.662;2023-05-12T06:39:08;99736.09;;;12.58;88.07
11041;BME280;5573;49.592;8.662;2023-05-12T06:41:56;99739.94;;;12.62;87.65
11041;BME280;5573;49.592;8.662;2023-05-12T06:44:44;99756.59;;;12.64;87.36
11041;BME280;5573;49.592;8.662;2023-05-12T06:47:32;99749.31;;;12.53;88.22
11041;BME280;5573;49.592;8.662;2023-05-12T06:50:22;99747.41;;;12.42;88.74
11041;BME280;5573;49.592;8.662;2023-05-12T06:53:11;99755.16;;;12.62;87.47
11041;BME280;5573;49.592;8.662;2023-05-12T06:55:59;99756.28;;;12.73;87.54
11041;BME280;5573;49.592;8.662;2023-05-12T06:58:47;99759.78;;;12.85;86.25
11041;BME280;5573;49.592;8.662;2023-05-12T07:01:35;99760.03;;;12.83;86.73
11041;BME280;5573;49.592;8.662;2023-05-12T07:04:23;99753.78;;;12.89;85.25
11041;BME280;5573;49.592;8.662;2023-05-12T07:07:13;99754.75;;;12.95;86.69
11041;BME280;5573;49.592;8.662;2023-05-12T07:10:02;99764.94;;;13.16;84.01
11041;BME280;5573;49.592;8.662;2023-05-12T07:12:50;99753.50;;;13.09;84.39
11041;BME280;5573;49.592;8.662;2023-05-12T07:15:38;99757.75;;;13.17;84.60
11041;BME280;5573;49.592;8.662;2023-05-12T07:18:26;99756.59;;;13.24;85.06
11041;BME280;5573;49.592;8.662;2023-05-12T07:21:14;99753.44;;;13.16;83.95
11041;BME280;5573;49.592;8.662;2023-05-12T07:24:04;99751.28;;;13.06;84.94
11041;BME280;5573;49.592;8.662;2023-05-12T07:26:52;99764.72;;;12.99;83.14
11041;BME280;5573;49.592;8.662;2023-05-12T07:29:40;99763.13;;;12.98;84.00
11041;BME280;5573;49.592;8.662;2023-05-12T07:32:28;99761.38;;;13.04;82.62
11041;BME280;5573;49.592;8.662;2023-05-12T07:35:16;99770.84;;;12.88;82.84
11041;BME280;5573;49.592;8.662;2023-05-12T07:38:05;99766.16;;;13.02;81.54
11041;BME280;5573;49.592;8.662;2023-05-12T07:40:56;99764.66;;;13.06;82.50
11041;BME280;5573;49.592;8.662;2023-05-12T07:43:45;99762.94;;;13.11;83.89
11041;BME280;5573;49.592;8.662;2023-05-12T07:46:33;99766.50;;;13.35;84.16
11041;BME280;5573;49.592;8.662;2023-05-12T07:49:22;99769.88;;;13.42;81.45
11041;BME280;5573;49.592;8.662;2023-05-12T07:52:10;99757.69;;;13.58;81.82
11041;BME280;5573;49.592;8.662;2023-05-12T07:54:58;99756.75;;;13.64;81.77
11041;BME280;5573;49.592;8.662;2023-05-12T07:57:48;99755.72;;;13.65;82.97
11041;BME280;5573;49.592;8.662;2023-05-12T08:00:36;99761.44;;;13.92;82.55
11041;BME280;5573;49.592;8.662;2023-05-12T08:03:25;99762.25;;;13.81;84.36
11041;BME280;5573;49.592;8.662;2023-05-12T08:06:13;99757.34;;;13.89;79.00
11041;BME280;5573;49.592;8.662;2023-05-12T08:09:01;99755.72;;;13.77;80.49
11041;BME280;5573;49.592;8.662;2023-05-12T08:11:50;99757.72;;;13.70;84.40
11041;BME280;5573;49.592;8.662;2023-05-12T08:14:39;99761.88;;;14.00;84.60
11041;BME280;5573;49.592;8.662;2023-05-12T08:17:27;99766.31;;;14.06;80.72
11041;BME280;5573;49.592;8.662;2023-05-12T08:20:15;99771.19;;;14.09;81.81
11041;BME280;5573;49.592;8.662;2023-05-12T08:23:03;99767.00;;;14.02;81.95
11041;BME280;5573;49.592;8.662;2023-05-12T08:25:52;99773.19;;;14.14;80.70
11041;BME280;5573;49.592;8.662;2023-05-12T08:28:40;99768.03;;;14.47;75.83
11041;BME280;5573;49.592;8.662;2023-05-12T08:31:30;99774.28;;;14.53;75.57
11041;BME280;5573;49.592;8.662;2023-05-12T08:34:18;99767.25;;;14.64;75.78
11041;BME280;5573;49.592;8.662;2023-05-12T08:37:06;99770.53;;;14.66;74.51
11041;BME280;5573;49.592;8.662;2023-05-12T08:39:55;99768.47;;;14.84;76.04
11041;BME280;5573;49.592;8.662;2023-05-12T08:42:48;99781.97;;;14.89;75.23
11041;BME280;5573;49.592;8.662;2023-05-12T08:45:41;99776.91;;;14.76;75.54
11041;BME280;5573;49.592;8.662;2023-05-12T08:48:32;99782.72;;;14.85;73.43
11041;BME280;5573;49.592;8.662;2023-05-12T08:51:23;99784.03;;;14.71;77.47
11041;BME280;5573;49.592;8.662;2023-05-12T08:54:11;99787.47;;;15.11;75.13
11041;BME280;5573;49.592;8.662;2023-05-12T08:57:00;99782.97;;;15.00;72.92
11041;BME280;5573;49.592;8.662;2023-05-12T08:59:52;99781.16;;;15.17;73.59
11041;BME280;5573;49.592;8.662;2023-05-12T09:02:42;99773.97;;;15.06;74.40
11041;BME280;5573;49.592;8.662;2023-05-12T09:05:41;99782.34;;;15.10;72.51
11041;BME280;5573;49.592;8.662;2023-05-12T09:08:30;99782.38;;;14.81;76.90
11041;BME280;5573;49.592;8.662;2023-05-12T09:11:19;99785.59;;;15.12;72.83
11041;BME280;5573;49.592;8.662;2023-05-12T09:14:09;99776.22;;;14.97;73.56
11041;BME280;5573;49.592;8.662;2023-05-12T09:17:01;99780.91;;;15.19;75.98
11041;BME280;5573;49.592;8.662;2023-05-12T09:19:50;99782.63;;;15.41;71.52
11041;BME280;5573;49.592;8.662;2023-05-12T09:22:39;99792.66;;;15.46;73.30
11041;BME280;5573;49.592;8.662;2023-05-12T09:25:27;99772.00;;;15.46;71.88
11041;BME280;5573;49.592;8.662;2023-05-12T09:28:15;99777.53;;;15.40;72.57
11041;BME280;5573;49.592;8.662;2023-05-12T09:31:14;99780.81;;;15.14;71.49
11041;BME280;5573;49.592;8.662;2023-05-12T09:34:06;99787.38;;;14.78;76.34
11041;BME280;5573;49.592;8.662;2023-05-12T09:36:55;99786.38;;;14.55;78.25
11041;BME280;5573;49.592;8.662;2023-05-12T09:39:45;99777.06;;;14.70;75.13
11041;BME280;5573;49.592;8.662;2023-05-12T09:42:34;99780.25;;;14.55;74.18
11041;BME280;5573;49.592;8.662;2023-05-12T09:45:22;99787.53;;;14.71;75.36
11041;BME280;5573;49.592;8.662;2023-05-12T09:48:11;99785.88;;;14.70;74.32
11041;BME280;5573;49.592;8.662;2023-05-12T09:51:00;99780.97;;;14.79;73.10
11041;BME280;5573;49.592;8.662;2023-05-12T09:53:48;99783.25;;;15.15;72.03
11041;BME280;5573;49.592;8.662;2023-05-12T09:56:39;99787.06;;;15.02;74.94
11041;BME280;5573;49.592;8.662;2023-05-12T09:59:29;99791.34;;;14.75;74.49
11041;BME280;5573;49.592;8.662;2023-05-12T10:02:18;99788.84;;;14.57;74.60
11041;BME280;5573;49.592;8.662;2023-05-12T10:05:12;99791.97;;;14.66;76.62
11041;BME280;5573;49.592;8.662;2023-05-12T10:08:02;99791.50;;;14.97;74.20
11041;BME280;5573;49.592;8.662;2023-05-12T10:10:54;99779.53;;;15.16;72.43
11041;BME280;5573;49.592;8.662;2023-05-12T10:13:45;99781.88;;;15.13;73.36
11041;BME280;5573;49.592;8.662;2023-05-12T10:16:34;99785.81;;;15.22;72.21
11041;BME280;5573;49.592;8.662;2023-05-12T10:19:24;99779.31;;;15.34;72.84
11041;BME280;5573;49.592;8.662;2023-05-12T10:22:14;99777.25;;;15.70;69.46
11041;BME280;5573;49.592;8.662;2023-05-12T10:25:04;99775.06;;;15.67;70.89
11041;BME280;5573;49.592;8.662;2023-05-12T10:27:54;99776.41;;;15.52;71.72
11041;BME280;5573;49.592;8.662;2023-05-12T10:30:44;99785.31;;;15.41;74.68
11041;BME280;5573;49.592;8.662;2023-05-12T10:33:34;99779.41;;;15.39;71.96
11041;BME280;5573;49.592;8.662;2023-05-12T10:36:22;99784.16;;;15.21;73.67
11041;BME280;5573;49.592;8.662;2023-05-12T10:39:12;99776.91;;;15.49;73.04
11041;BME280;5573;49.592;8.662;2023-05-12T10:42:03;99777.75;;;15.67;72.41
11041;BME280;5573;49.592;8.662;2023-05-12T10:44:52;99773.88;;;15.96;70.39
11041;BME280;5573;49.592;8.662;2023-05-12T10:47:42;99741.91;;;15.78;71.61
11041;BME280;5573;49.592;8.662;2023-05-12T10:50:30;99768.72;;;16.11;69.56
11041;BME280;5573;49.592;8.662;2023-05-12T10:53:26;99769.66;;;16.00;71.19
11041;BME280;5573;49.592;8.662;2023-05-12T10:56:40;99778.78;;;16.21;69.46
11041;BME280;5573;49.592;8.662;2023-05-12T10:59:30;99774.19;;;15.99;63.99
11041;BME280;5573;49.592;8.662;2023-05-12T11:02:21;99774.94;;;15.95;67.23
11041;BME280;5573;49.592;8.662;2023-05-12T11:05:15;99773.69;;;16.02;69.33
11041;BME280;5573;49.592;8.662;2023-05-12T11:08:04;99763.69;;;15.98;67.91
11041;BME280;5573;49.592;8.662;2023-05-12T11:10:53;99775.13;;;16.48;67.48
11041;BME280;5573;49.592;8.662;2023-05-12T11:13:42;99771.63;;;16.91;64.97
11041;BME280;5573;49.592;8.662;2023-05-12T11:16:30;99772.38;;;17.14;64.20
11041;BME280;5573;49.592;8.662;2023-05-12T11:19:18;99773.97;;;17.10;65.90
11041;BME280;5573;49.592;8.662;2023-05-12T11:22:09;99769.41;;;17.10;64.96
11041;BME280;5573;49.592;8.662;2023-05-12T11:24:57;99778.16;;;17.27;64.67
11041;BME280;5573;49.592;8.662;2023-05-12T11:27:46;99779.28;;;17.31;62.68
11041;BME280;5573;49.592;8.662;2023-05-12T11:30:35;99781.28;;;17.14;62.65
11041;BME280;5573;49.592;8.662;2023-05-12T11:33:23;99786.22;;;17.22;65.19
11041;BME280;5573;49.592;8.662;2023-05-12T11:36:11;99787.34;;;17.26;64.85
11041;BME280;5573;49.592;8.662;2023-05-12T11:39:01;99781.81;;;17.16;62.55
11041;BME280;5573;49.592;8.662;2023-05-12T11:41:52;99764.97;;;16.99;63.98
11041;BME280;5573;49.592;8.662;2023-05-12T11:44:57;99781.28;;;17.46;62.00
11041;BME280;5573;49.592;8.662;2023-05-12T11:47:45;99783.66;;;17.37;64.00
11041;BME280;5573;49.592;8.662;2023-05-12T11:50:36;99786.16;;;17.17;64.75
11041;BME280;5573;49.592;8.662;2023-05-12T11:53:25;99792.41;;;17.55;65.18
11041;BME280;5573;49.592;8.662;2023-05-12T11:56:18;99795.66;;;17.25;64.91
11041;BME280;5573;49.592;8.662;2023-05-12T11:59:07;99797.28;;;16.99;65.21
11041;BME280;5573;49.592;8.662;2023-05-12T12:01:56;99803.66;;;16.71;67.42
11041;BME280;5573;49.592;8.662;2023-05-12T12:04:44;99800.19;;;16.71;64.78
11041;BME280;5573;49.592;8.662;2023-05-12T12:07:34;99799.69;;;16.74;68.04
11041;BME280;5573;49.592;8.662;2023-05-12T12:10:22;99806.94;;;16.35;67.65
11041;BME280;5573;49.592;8.662;2023-05-12T12:13:17;99807.34;;;16.43;65.76
11041;BME280;5573;49.592;8.662;2023-05-12T12:16:06;99806.72;;;16.20;66.07
11041;BME280;5573;49.592;8.662;2023-05-12T12:18:54;99808.88;;;16.01;67.48
11041;BME280;5573;49.592;8.662;2023-05-12T12:21:43;99819.66;;;15.84;67.13
11041;BME280;5573;49.592;8.662;2023-05-12T12:24:31;99813.78;;;15.87;67.25
11041;BME280;5573;49.592;8.662;2023-05-12T12:27:19;99817.44;;;15.98;67.10
11041;BME280;5573;49.592;8.662;2023-05-12T12:30:09;99822.06;;;15.86;69.44
11041;BME280;5573;49.592;8.662;2023-05-12T12:32:58;99818.72;;;15.79;69.59
11041;BME280;5573;49.592;8.662;2023-05-12T12:35:46;99820.94;;;15.98;68.03
11041;BME280;5573;49.592;8.662;2023-05-12T12:38:34;99831.59;;;15.77;68.92
11041;BME280;5573;49.592;8.662;2023-05-12T12:41:24;99820.03;;;15.76;66.19
11041;BME280;5573;49.592;8.662;2023-05-12T12:44:13;99827.44;;;15.52;69.85
11041;BME280;5573;49.592;8.662;2023-05-12T12:47:02;99818.31;;;15.53;69.37
11041;BME280;5573;49.592;8.662;2023-05-12T12:49:51;99832.91;;;15.46;69.89
11041;BME280;5573;49.592;8.662;2023-05-12T12:52:39;99836.63;;;15.57;68.74
11041;BME280;5573;49.592;8.662;2023-05-12T12:55:28;99834.69;;;15.52;70.64
11041;BME280;5573;49.592;8.662;2023-05-12T12:58:16;99834.72;;;15.40;70.72
11041;BME280;5573;49.592;8.662;2023-05-12T13:01:04;99829.34;;;15.40;69.09
11041;BME280;5573;49.592;8.662;2023-05-12T13:03:54;99829.88;;;15.71;69.50
11041;BME280;5573;49.592;8.662;2023-05-12T13:06:42;99831.31;;;16.12;68.71
11041;BME280;5573;49.592;8.662;2023-05-12T13:09:30;99824.72;;;16.19;67.68
11041;BME280;5573;49.592;8.662;2023-05-12T13:12:18;99818.78;;;16.56;66.68
11041;BME280;5573;49.592;8.662;2023-05-12T13:15:07;99825.06;;;17.05;65.13
11041;BME280;5573;49.592;8.662;2023-05-12T13:17:56;99834.88;;;17.16;64.46
11041;BME280;5573;49.592;8.662;2023-05-12T13:20:45;99831.19;;;17.00;63.76
11041;BME280;5573;49.592;8.662;2023-05-12T13:23:33;99835.50;;;17.23;66.09
11041;BME280;5573;49.592;8.662;2023-05-12T13:26:21;99831.47;;;17.79;63.43
11041;BME280;5573;49.592;8.662;2023-05-12T13:29:09;99824.38;;;17.73;63.11
11041;BME280;5573;49.592;8.662;2023-05-12T13:31:57;99830.72;;;17.57;63.40
11041;BME280;5573;49.592;8.662;2023-05-12T13:34:45;99830.94;;;17.28;64.21
11041;BME280;5573;49.592;8.662;2023-05-12T13:37:35;99831.00;;;17.33;63.74
11041;BME280;5573;49.592;8.662;2023-05-12T13:40:24;99833.84;;;17.49;64.36
11041;BME280;5573;49.592;8.662;2023-05-12T13:43:12;99830.44;;;17.31;62.43
11041;BME280;5573;49.592;8.662;2023-05-12T13:46:00;99835.06;;;17.36;64.36
11041;BME280;5573;49.592;8.662;2023-05-12T13:48:48;99835.50;;;17.23;65.22
11041;BME280;5573;49.592;8.662;2023-05-12T13:51:38;99835.88;;;17.36;63.83
11041;BME280;5573;49.592;8.662;2023-05-12T13:54:27;99827.94;;;17.25;63.49
11041;BME280;5573;49.592;8.662;2023-05-12T13:57:15;99829.53;;;17.21;64.00
11041;BME280;5573;49.592;8.662;2023-05-12T14:00:05;99826.59;;;17.22;61.85
11041;BME280;5573;49.592;8.662;2023-05-12T14:03:03;99832.63;;;17.08;63.34
11041;BME280;5573;49.592;8.662;2023-05-12T14:05:51;99837.38;;;17.22;62.74
11041;BME280;5573;49.592;8.662;2023-05-12T14:08:39;99831.09;;;17.17;61.77
11041;BME280;5573;49.592;8.662;2023-05-12T14:11:29;99835.50;;;17.23;64.71
11041;BME280;5573;49.592;8.662;2023-05-12T14:14:16;99833.84;;;17.22;61.83
11041;BME280;5573;49.592;8.662;2023-05-12T14:17:05;99836.47;;;17.17;62.39
11041;BME280;5573;49.592;8.662;2023-05-12T14:19:52;99834.88;;;16.94;62.25
11041;BME280;5573;49.592;8.662;2023-05-12T14:22:41;99836.09;;;16.43;64.38
11041;BME280;5573;49.592;8.662;2023-05-12T14:25:29;99835.59;;;16.63;65.18
11041;BME280;5573;49.592;8.662;2023-05-12T14:28:18;99830.50;;;16.28;66.75
11041;BME280;5573;49.592;8.662;2023-05-12T14:31:08;99842.28;;;16.43;66.24
11041;BME280;5573;49.592;8.662;2023-05-12T14:33:56;99841.22;;;16.44;66.13
11041;BME280;5573;49.592;8.662;2023-05-12T14:36:45;99842.78;;;16.40;65.74
11041;BME280;5573;49.592;8.662;2023-05-12T14:39:33;99840.00;;;16.35;64.58
11041;BME280;5573;49.592;8.662;2023-05-12T14:42:21;99845.41;;;16.35;65.17
11041;BME280;5573;49.592;8.662;2023-05-12T14:45:11;99835.84;;;16.44;64.67
11041;BME280;5573;49.592;8.662;2023-05-12T14:47:59;99835.22;;;16.37;65.21
11041;BME280;5573;49.592;8.662;2023-05-12T14:50:47;99842.16;;;16.17;65.92
11041;BME280;5573;49.592;8.662;2023-05-12T14:53:38;99849.56;;;16.26;65.93
11041;BME280;5573;49.592;8.662;2023-05-12T14:56:26;99847.16;;;16.46;66.15
11041;BME280;5573;49.592;8.662;2023-05-12T14:59:15;99838.38;;;16.34;65.44
11041;BME280;5573;49.592;8.662;2023-05-12T15:02:04;99845.97;;;16.37;66.32
11041;BME280;5573;49.592;8.662;2023-05-12T15:04:52;99850.59;;;16.59;64.24
11041;BME280;5573;49.592;8.662;2023-05-12T15:07:41;99853.44;;;16.52;65.70